Time;durP1;ratioP1;P1;durP2;ratioP2;P2;SDS_P1;SDS_P2;PMS_P1;PMS_P2;Temp;Humidity;BMP_temperature;BMP_pressure;BME280_temperature;BME280_humidity;BME280_pressure;Samples;Min_cycle;Max_cycle;Signal;HPM_P1;HPM_P2
2023/09/27 00:00:34;;;;;;;2.17;1.98;;;21.00;76.40;;;;;;5000163;28;20188;-70
2023/09/27 00:03:00;;;;;;;2.97;2.25;;;21.00;76.40;;;;;;4992830;28;20213;-70
2023/09/27 00:05:26;;;;;;;1.80;1.70;;;21.00;76.40;;;;;;4983243;28;20227;-70
2023/09/27 00:07:52;;;;;;;2.28;2.08;;;21.00;76.40;;;;;;4991784;28;20216;-71
2023/09/27 00:10:18;;;;;;;2.03;1.92;;;21.00;76.40;;;;;;5001693;28;20192;-72
2023/09/27 00:12:48;;;;;;;2.22;1.92;;;21.00;76.40;;;;;;4992166;28;20200;-70
2023/09/27 00:15:14;;;;;;;2.00;1.90;;;21.00;76.40;;;;;;4978538;28;20223;-69
2023/09/27 00:17:41;;;;;;;2.30;2.10;;;21.00;76.40;;;;;;4981423;28;20221;-70
2023/09/27 00:20:15;;;;;;;2.20;2.00;;;21.00;76.40;;;;;;4990771;28;20280;-70
2023/09/27 00:22:45;;;;;;;2.65;2.08;;;21.00;76.40;;;;;;4988918;28;20245;-70
2023/09/27 00:25:11;;;;;;;2.53;1.88;;;21.00;76.30;;;;;;4989438;28;20563;-71
2023/09/27 00:27:37;;;;;;;2.38;2.13;;;21.00;76.30;;;;;;4992552;28;20658;-70
2023/09/27 00:30:07;;;;;;;1.92;1.75;;;21.00;76.40;;;;;;4982799;28;20181;-70
2023/09/27 00:32:33;;;;;;;2.10;1.90;;;21.00;76.30;;;;;;4975251;28;20231;-70
2023/09/27 00:35:01;;;;;;;2.00;1.90;;;21.00;76.30;;;;;;4991364;28;20193;-70
2023/09/27 00:37:27;;;;;;;1.83;1.73;;;21.00;76.30;;;;;;4988587;28;20256;-70
2023/09/27 00:39:55;;;;;;;2.00;1.77;;;21.00;76.30;;;;;;4987421;28;20208;-70
2023/09/27 00:42:20;;;;;;;2.20;2.00;;;20.90;76.20;;;;;;4975287;28;20239;-70
2023/09/27 00:44:46;;;;;;;1.75;1.65;;;21.00;76.30;;;;;;4999501;28;20189;-70
2023/09/27 00:47:14;;;;;;;2.20;2.00;;;21.00;76.20;;;;;;4990851;28;20212;-73
2023/09/27 00:49:40;;;;;;;1.70;1.60;;;21.00;76.20;;;;;;4991713;28;20185;-70
2023/09/27 00:52:06;;;;;;;2.00;1.80;;;21.00;76.20;;;;;;4992371;28;20189;-70
2023/09/27 00:54:34;;;;;;;2.63;2.08;;;21.00;76.30;;;;;;4992603;28;20244;-70
2023/09/27 00:57:03;;;;;;;2.50;2.20;;;21.00;76.30;;;;;;4974265;28;20232;-71
2023/09/27 00:59:29;;;;;;;2.38;2.28;;;20.90;76.10;;;;;;4991410;28;20272;-70
2023/09/27 01:01:56;;;;;;;4.03;2.38;;;21.00;76.20;;;;;;4991020;28;20649;-71
2023/09/27 01:04:23;;;;;;;1.85;1.75;;;21.00;76.20;;;;;;4974804;28;20184;-71
2023/09/27 01:06:49;;;;;;;2.13;1.92;;;21.00;76.20;;;;;;4991038;28;20351;-70
2023/09/27 01:09:16;;;;;;;2.40;1.85;;;21.00;76.20;;;;;;4974782;28;20200;-70
2023/09/27 01:11:46;;;;;;;2.30;1.85;;;20.90;76.00;;;;;;4991147;28;20275;-71
2023/09/27 01:14:13;;;;;;;1.88;1.77;;;21.00;76.10;;;;;;4974915;28;20188;-70
2023/09/27 01:16:39;;;;;;;2.30;1.80;;;20.90;76.00;;;;;;4974518;28;20228;-70
2023/09/27 01:19:04;;;;;;;1.60;1.50;;;20.90;76.00;;;;;;4974758;28;20200;-70
2023/09/27 01:21:31;;;;;;;1.92;1.80;;;20.90;76.00;;;;;;4990872;28;20191;-70
2023/09/27 01:23:57;;;;;;;2.30;2.10;;;21.00;76.10;;;;;;4982477;28;20212;-70
2023/09/27 01:26:23;;;;;;;1.73;1.63;;;20.90;76.00;;;;;;4974610;28;20656;-70
2023/09/27 01:28:50;;;;;;;2.13;1.92;;;20.90;76.00;;;;;;4989160;28;20232;-70
2023/09/27 01:31:15;;;;;;;1.90;1.80;;;20.90;75.90;;;;;;4991863;28;20196;-70
2023/09/27 01:33:41;;;;;;;2.15;2.03;;;21.00;76.10;;;;;;5004805;28;20193;-70
2023/09/27 01:36:08;;;;;;;2.63;1.60;;;20.90;75.90;;;;;;4977418;28;20201;-70
2023/09/27 01:38:34;;;;;;;1.85;1.70;;;20.90;75.90;;;;;;4994732;28;20215;-71
2023/09/27 01:41:00;;;;;;;2.00;1.73;;;20.90;76.00;;;;;;4962860;28;20626;-70
2023/09/27 01:43:26;;;;;;;1.52;1.42;;;20.90;75.90;;;;;;5007408;28;20254;-71
2023/09/27 01:45:52;;;;;;;1.70;1.60;;;20.90;75.90;;;;;;4974834;28;20185;-71
2023/09/27 01:48:20;;;;;;;1.77;1.60;;;20.90;75.90;;;;;;4977383;28;20247;-70
2023/09/27 01:50:46;;;;;;;1.70;1.52;;;20.90;75.90;;;;;;4983287;28;20553;-70
2023/09/27 01:53:12;;;;;;;1.85;1.75;;;20.90;75.90;;;;;;5003606;28;20193;-70
2023/09/27 01:55:37;;;;;;;2.13;1.92;;;20.90;75.90;;;;;;4985106;28;20203;-70
2023/09/27 01:58:04;;;;;;;2.13;1.77;;;20.90;75.90;;;;;;4978159;28;20215;-70
2023/09/27 02:00:30;;;;;;;1.70;1.60;;;20.90;75.90;;;;;;4993634;28;20212;-70
2023/09/27 02:03:01;;;;;;;2.20;1.77;;;20.90;75.90;;;;;;5002791;28;20212;-70
2023/09/27 02:05:30;;;;;;;2.65;1.70;;;20.90;75.80;;;;;;5005655;28;20207;-70
2023/09/27 02:07:56;;;;;;;1.50;1.40;;;20.90;75.90;;;;;;4988848;28;20210;-70
2023/09/27 02:10:22;;;;;;;1.90;1.70;;;20.90;75.80;;;;;;4972404;28;20185;-70
2023/09/27 02:12:48;;;;;;;1.90;1.73;;;20.90;75.80;;;;;;4974197;28;20189;-70
2023/09/27 02:15:16;;;;;;;1.83;1.73;;;20.90;75.90;;;;;;4985564;28;20283;-70
2023/09/27 02:17:43;;;;;;;1.77;1.67;;;20.90;75.80;;;;;;4985503;28;20224;-70
2023/09/27 02:20:13;;;;;;;3.10;1.90;;;20.90;75.80;;;;;;4971559;28;20187;-71
2023/09/27 02:22:40;;;;;;;2.00;1.70;;;20.90;75.80;;;;;;4994265;28;20236;-70
2023/09/27 02:25:09;;;;;;;1.73;1.63;;;20.90;75.80;;;;;;5003035;28;20271;-70
2023/09/27 02:27:37;;;;;;;1.70;1.60;;;20.80;75.60;;;;;;4964374;28;20216;-70
2023/09/27 02:30:06;;;;;;;1.73;1.63;;;20.90;75.70;;;;;;4982377;28;20185;-70
2023/09/27 02:32:33;;;;;;;2.17;1.58;;;20.90;75.70;;;;;;4985355;28;20184;-70
2023/09/27 02:35:00;;;;;;;1.73;1.63;;;20.90;75.70;;;;;;4969320;28;20185;-71
2023/09/27 02:37:27;;;;;;;1.70;1.60;;;20.90;75.70;;;;;;5000552;28;20632;-70
2023/09/27 02:39:52;;;;;;;1.52;1.42;;;20.80;75.60;;;;;;5001231;28;20251;-70
2023/09/27 02:42:18;;;;;;;1.70;1.60;;;20.90;75.70;;;;;;5003210;28;20215;-71
2023/09/27 02:44:44;;;;;;;1.70;1.60;;;20.80;75.60;;;;;;4965467;28;20197;-70
2023/09/27 02:47:10;;;;;;;1.75;1.50;;;20.80;75.60;;;;;;4999645;28;20219;-70
2023/09/27 02:49:36;;;;;;;1.60;1.50;;;20.80;75.60;;;;;;4978624;28;20192;-70
2023/09/27 02:52:02;;;;;;;1.83;1.73;;;20.80;75.60;;;;;;4988037;28;20184;-70
2023/09/27 02:54:28;;;;;;;1.60;1.50;;;20.80;75.60;;;;;;5008158;28;20212;-70
2023/09/27 02:56:55;;;;;;;1.80;1.70;;;20.80;75.60;;;;;;4979762;28;20256;-70
2023/09/27 02:59:21;;;;;;;2.20;1.90;;;20.80;75.60;;;;;;5010991;28;20188;-70
2023/09/27 03:01:47;;;;;;;1.65;1.55;;;20.80;75.60;;;;;;4975110;28;20179;-70
2023/09/27 03:04:15;;;;;;;1.83;1.70;;;20.80;75.60;;;;;;5003701;28;20222;-70
2023/09/27 03:06:42;;;;;;;1.67;1.50;;;20.80;75.50;;;;;;5004048;28;20208;-70
2023/09/27 03:09:12;;;;;;;1.80;1.70;;;20.80;75.60;;;;;;5004313;28;20192;-70
2023/09/27 03:11:41;;;;;;;1.75;1.65;;;20.80;75.50;;;;;;5011975;28;20192;-70
2023/09/27 03:14:07;;;;;;;1.65;1.55;;;20.80;75.50;;;;;;5003866;28;20181;-70
2023/09/27 03:16:34;;;;;;;1.60;1.50;;;20.80;75.50;;;;;;4983940;28;20351;-70
2023/09/27 03:19:01;;;;;;;1.50;1.40;;;20.80;75.50;;;;;;5000241;28;20265;-71
2023/09/27 03:21:27;;;;;;;1.80;1.70;;;20.80;75.50;;;;;;4976467;28;20193;-70
2023/09/27 03:23:56;;;;;;;1.70;1.60;;;20.80;75.40;;;;;;4999200;28;20270;-70
2023/09/27 03:26:23;;;;;;;1.50;1.40;;;20.80;75.50;;;;;;4986188;28;20212;-70
2023/09/27 03:28:51;;;;;;;1.67;1.58;;;20.80;75.40;;;;;;4987472;28;20176;-70
2023/09/27 03:31:19;;;;;;;1.45;1.30;;;20.80;75.50;;;;;;4979772;28;20185;-70
2023/09/27 03:33:48;;;;;;;1.77;1.67;;;20.80;75.50;;;;;;4986962;28;20192;-70
2023/09/27 03:36:14;;;;;;;1.95;1.85;;;20.80;75.50;;;;;;5000971;28;20215;-70
2023/09/27 03:38:40;;;;;;;1.60;1.50;;;20.80;75.50;;;;;;4983465;28;20307;-70
2023/09/27 03:41:11;;;;;;;2.45;1.60;;;20.70;75.30;;;;;;4983469;28;20195;-73
2023/09/27 03:43:37;;;;;;;1.60;1.50;;;20.80;75.40;;;;;;4987668;28;20235;-70
2023/09/27 03:46:04;;;;;;;1.98;1.88;;;20.80;75.40;;;;;;4987133;28;20177;-70
2023/09/27 03:48:32;;;;;;;1.58;1.48;;;20.80;75.30;;;;;;4991181;28;20773;-70
2023/09/27 03:50:58;;;;;;;1.40;1.30;;;20.80;75.40;;;;;;4992228;28;20212;-70
2023/09/27 03:53:26;;;;;;;1.50;1.40;;;20.80;75.30;;;;;;4999568;28;20188;-70
2023/09/27 03:55:52;;;;;;;1.75;1.65;;;20.80;75.40;;;;;;4999293;28;20192;-70
2023/09/27 03:58:17;;;;;;;1.80;1.70;;;20.80;75.40;;;;;;4993091;28;20275;-70
2023/09/27 04:00:44;;;;;;;1.55;1.45;;;20.80;75.40;;;;;;4995923;28;20192;-70
2023/09/27 04:03:10;;;;;;;1.52;1.42;;;20.80;75.30;;;;;;4973926;28;20215;-70
2023/09/27 04:05:36;;;;;;;1.70;1.60;;;20.70;75.20;;;;;;4999455;28;20185;-70
2023/09/27 04:08:02;;;;;;;1.48;1.38;;;20.80;75.30;;;;;;4975639;28;20217;-70
2023/09/27 04:10:29;;;;;;;1.60;1.50;;;20.70;75.20;;;;;;5008555;28;20189;-70
2023/09/27 04:12:55;;;;;;;1.50;1.40;;;20.80;75.30;;;;;;5004358;28;20188;-70
2023/09/27 04:15:21;;;;;;;1.50;1.40;;;20.80;75.30;;;;;;5001409;28;20195;-70
2023/09/27 04:17:47;;;;;;;1.40;1.30;;;20.80;75.30;;;;;;5005001;28;20275;-69
2023/09/27 04:20:17;;;;;;;1.60;1.50;;;20.80;75.30;;;;;;4983371;28;20188;-70
2023/09/27 04:22:48;;;;;;;1.40;1.30;;;20.80;75.30;;;;;;4997322;28;20215;-70
2023/09/27 04:25:16;;;;;;;1.77;1.67;;;20.70;75.20;;;;;;5007056;28;20196;-70
2023/09/27 04:27:45;;;;;;;2.15;1.55;;;20.70;75.20;;;;;;4975248;28;20254;-70
2023/09/27 04:30:15;;;;;;;1.40;1.30;;;20.70;75.20;;;;;;4975709;28;20202;-70
2023/09/27 04:32:50;;;;;;;1.40;1.30;;;20.70;75.20;;;;;;4998672;28;20189;-70
2023/09/27 04:35:16;;;;;;;1.60;1.50;;;20.70;75.10;;;;;;4999848;28;20191;-70
2023/09/27 04:37:42;;;;;;;1.70;1.60;;;20.70;75.10;;;;;;4979465;28;20215;-70
2023/09/27 04:40:11;;;;;;;2.00;1.90;;;20.70;75.10;;;;;;4968424;28;20196;-70
2023/09/27 04:42:38;;;;;;;1.70;1.60;;;20.70;75.00;;;;;;4982086;28;20216;-71
2023/09/27 04:45:04;;;;;;;2.00;1.90;;;20.70;75.00;;;;;;4979260;28;20184;-70
2023/09/27 04:47:30;;;;;;;2.35;2.15;;;20.70;75.00;;;;;;4993250;28;20262;-70
2023/09/27 04:49:56;;;;;;;2.08;1.98;;;20.70;75.10;;;;;;4962877;28;20185;-69
2023/09/27 04:52:22;;;;;;;2.60;1.90;;;20.70;75.00;;;;;;4992374;28;20225;-70
2023/09/27 04:54:53;;;;;;;2.22;2.03;;;20.70;75.00;;;;;;4998352;28;20196;-72
2023/09/27 04:57:19;;;;;;;2.40;2.20;;;20.70;75.00;;;;;;4998825;28;20217;-71
2023/09/27 04:59:45;;;;;;;2.28;2.10;;;20.70;75.10;;;;;;4996019;28;20215;-69
2023/09/27 05:02:11;;;;;;;2.88;2.53;;;20.70;75.00;;;;;;4976644;28;20278;-70
2023/09/27 05:04:37;;;;;;;3.03;2.47;;;20.70;75.10;;;;;;4974848;28;20281;-70
2023/09/27 05:07:03;;;;;;;2.60;2.40;;;20.70;75.10;;;;;;4965476;28;20216;-71
2023/09/27 05:09:29;;;;;;;2.70;2.50;;;20.70;75.10;;;;;;4990471;28;20196;-70
2023/09/27 05:11:55;;;;;;;2.90;2.70;;;20.70;75.00;;;;;;4997820;28;20189;-70
2023/09/27 05:14:20;;;;;;;2.92;2.72;;;20.70;75.00;;;;;;4982107;28;20209;-70
2023/09/27 05:16:46;;;;;;;3.15;2.70;;;20.70;75.00;;;;;;4963304;28;20215;-70
2023/09/27 05:19:12;;;;;;;2.75;2.55;;;20.70;75.00;;;;;;4991491;28;20184;-70
2023/09/27 05:21:38;;;;;;;2.88;2.67;;;20.70;75.00;;;;;;4980681;28;20264;-71
2023/09/27 05:24:04;;;;;;;2.83;2.63;;;20.70;75.00;;;;;;4958318;28;20236;-70
2023/09/27 05:26:30;;;;;;;2.70;2.50;;;20.70;75.00;;;;;;4982224;28;20188;-70
2023/09/27 05:28:55;;;;;;;2.80;2.60;;;20.70;75.00;;;;;;4974572;28;20215;-70
2023/09/27 05:31:21;;;;;;;2.85;2.65;;;20.70;74.90;;;;;;4997085;28;20192;-71
2023/09/27 05:33:48;;;;;;;3.30;3.00;;;20.70;75.00;;;;;;4997419;28;20196;-70
2023/09/27 05:36:14;;;;;;;3.05;2.85;;;20.70;74.90;;;;;;4974010;28;20200;-71
2023/09/27 05:38:40;;;;;;;3.05;2.85;;;20.70;75.00;;;;;;4990503;28;20222;-72
2023/09/27 05:41:06;;;;;;;3.47;3.08;;;20.70;74.90;;;;;;4996591;28;20199;-70
2023/09/27 05:43:31;;;;;;;3.28;2.78;;;20.70;74.80;;;;;;4996743;28;20213;-70
2023/09/27 05:45:57;;;;;;;2.60;2.40;;;20.70;74.90;;;;;;4986835;28;20187;-71
2023/09/27 05:48:23;;;;;;;3.08;2.80;;;20.70;74.80;;;;;;4992337;28;20207;-70
2023/09/27 05:50:50;;;;;;;2.63;2.28;;;20.70;74.80;;;;;;4969447;28;20188;-72
2023/09/27 05:53:18;;;;;;;2.78;2.58;;;20.70;74.70;;;;;;4963409;28;20198;-71
2023/09/27 05:55:44;;;;;;;3.28;2.70;;;20.70;74.80;;;;;;4981086;28;20192;-70
2023/09/27 05:58:10;;;;;;;3.03;2.83;;;20.70;74.80;;;;;;4974168;28;20209;-71
2023/09/27 06:00:42;;;;;;;2.97;2.70;;;20.70;74.80;;;;;;4993837;28;20655;-71
2023/09/27 06:03:10;;;;;;;2.92;2.60;;;20.70;74.80;;;;;;4983098;28;20211;-72
2023/09/27 06:05:36;;;;;;;2.85;2.65;;;20.70;74.80;;;;;;4963923;28;20648;-71
2023/09/27 06:08:03;;;;;;;3.10;2.90;;;20.70;74.80;;;;;;4986857;28;20211;-71
2023/09/27 06:10:29;;;;;;;3.00;2.80;;;20.70;74.80;;;;;;5005487;28;20572;-72
2023/09/27 06:12:55;;;;;;;3.40;3.10;;;20.70;74.80;;;;;;4994741;28;20251;-71
2023/09/27 06:15:20;;;;;;;2.92;2.72;;;20.70;74.80;;;;;;4990059;28;20196;-71
2023/09/27 06:17:48;;;;;;;3.00;2.80;;;20.70;74.70;;;;;;5000875;28;20755;-71
2023/09/27 06:20:22;;;;;;;3.53;3.22;;;20.70;74.80;;;;;;4956634;28;20551;-71
2023/09/27 06:22:54;;;;;;;2.85;2.63;;;20.70;74.90;;;;;;4981539;28;20204;-71
2023/09/27 06:25:23;;;;;;;2.95;2.63;;;20.70;74.80;;;;;;4983892;28;20239;-70
2023/09/27 06:27:49;;;;;;;3.53;3.22;;;20.70;74.80;;;;;;4988514;28;20228;-71
2023/09/27 06:30:15;;;;;;;3.03;2.83;;;20.60;74.60;;;;;;4980928;28;20191;-71
2023/09/27 06:32:41;;;;;;;3.00;2.72;;;20.70;74.70;;;;;;4977640;28;20185;-70
2023/09/27 06:35:12;;;;;;;3.40;3.10;;;20.70;74.70;;;;;;4967827;28;20262;-71
2023/09/27 06:37:43;;;;;;;3.00;2.72;;;20.70;74.70;;;;;;5002903;28;20204;-71
2023/09/27 06:40:16;;;;;;;3.33;3.03;;;20.70;74.70;;;;;;4979465;28;20200;-71
2023/09/27 06:42:43;;;;;;;2.80;2.60;;;20.70;74.70;;;;;;4997224;28;20306;-71
2023/09/27 06:45:10;;;;;;;4.05;3.38;;;20.70;74.70;;;;;;4987739;28;20192;-71
2023/09/27 06:47:38;;;;;;;3.42;3.13;;;20.70;74.70;;;;;;5005766;28;20209;-71
2023/09/27 06:50:04;;;;;;;3.33;3.00;;;20.70;74.70;;;;;;4999532;28;20188;-70
2023/09/27 06:52:31;;;;;;;2.97;2.75;;;20.70;74.70;;;;;;5003534;28;20189;-70
2023/09/27 06:54:59;;;;;;;2.88;2.65;;;20.70;74.70;;;;;;4979001;28;20180;-70
2023/09/27 06:57:25;;;;;;;3.22;2.97;;;20.70;74.80;;;;;;4992159;28;20290;-72
2023/09/27 06:59:51;;;;;;;3.10;2.80;;;20.70;74.80;;;;;;5002783;28;20180;-71
2023/09/27 07:02:17;;;;;;;3.85;2.90;;;20.70;74.70;;;;;;5001569;28;20216;-71
2023/09/27 07:04:43;;;;;;;3.47;3.17;;;20.70;74.70;;;;;;5003951;28;20195;-71
2023/09/27 07:07:10;;;;;;;3.65;3.33;;;20.70;74.70;;;;;;4976731;28;20851;-71
2023/09/27 07:09:35;;;;;;;3.80;3.15;;;20.70;74.70;;;;;;4992785;28;20185;-70
2023/09/27 07:12:02;;;;;;;3.47;3.17;;;20.70;74.70;;;;;;4999137;28;20630;-71
2023/09/27 07:14:28;;;;;;;3.83;3.50;;;20.70;74.70;;;;;;4994096;28;20585;-70
2023/09/27 07:16:53;;;;;;;4.10;3.70;;;20.70;74.70;;;;;;4989688;28;20293;-70
2023/09/27 07:19:19;;;;;;;3.10;2.80;;;20.70;74.70;;;;;;4989190;28;20192;-71
2023/09/27 07:21:45;;;;;;;4.53;3.00;;;20.70;74.70;;;;;;4988444;28;20246;-70
2023/09/27 07:24:11;;;;;;;3.33;2.88;;;20.80;74.70;;;;;;4994760;28;20211;-71
2023/09/27 07:26:38;;;;;;;4.18;3.33;;;20.80;74.70;;;;;;4998551;28;20197;-70
2023/09/27 07:29:03;;;;;;;3.63;3.33;;;20.80;74.80;;;;;;4982596;28;20180;-70
2023/09/27 07:31:29;;;;;;;4.43;3.30;;;20.80;74.80;;;;;;4976516;28;20563;-71
2023/09/27 07:33:56;;;;;;;3.60;3.13;;;20.80;74.80;;;;;;4980954;28;20566;-72
2023/09/27 07:36:24;;;;;;;3.72;3.38;;;20.80;74.80;;;;;;4960350;28;20185;-71
2023/09/27 07:38:58;;;;;;;4.88;3.40;;;20.80;74.80;;;;;;4998445;28;20300;-70
2023/09/27 07:41:25;;;;;;;4.40;3.65;;;20.80;74.80;;;;;;5006452;28;20239;-71
2023/09/27 07:43:51;;;;;;;5.45;3.80;;;20.80;74.80;;;;;;4999844;28;20204;-71
2023/09/27 07:46:18;;;;;;;3.38;3.08;;;20.90;74.90;;;;;;4992197;28;20200;-71
2023/09/27 07:48:44;;;;;;;4.28;3.58;;;20.90;75.00;;;;;;4981807;28;20320;-71
2023/09/27 07:51:18;;;;;;;4.30;3.70;;;20.90;75.00;;;;;;4994850;28;20276;-71
2023/09/27 07:53:44;;;;;;;3.63;3.30;;;20.90;75.00;;;;;;4984189;28;20216;-71
2023/09/27 07:56:19;;;;;;;4.07;3.67;;;21.00;75.00;;;;;;4997656;28;20184;-70
2023/09/27 07:58:49;;;;;;;4.07;3.53;;;21.00;75.10;;;;;;4984094;28;20191;-70
2023/09/27 08:01:20;;;;;;;4.13;3.30;;;21.00;75.10;;;;;;4990893;28;20185;-70
2023/09/27 08:03:48;;;;;;;3.75;3.35;;;21.00;75.10;;;;;;4970531;28;20220;-71
2023/09/27 08:06:16;;;;;;;4.18;3.60;;;21.00;75.20;;;;;;4991415;28;20208;-70
2023/09/27 08:08:43;;;;;;;3.67;3.33;;;21.00;75.20;;;;;;4975459;28;20215;-71
2023/09/27 08:11:13;;;;;;;4.65;3.05;;;21.00;75.20;;;;;;4991771;28;20189;-70
2023/09/27 08:13:40;;;;;;;3.85;3.20;;;21.00;75.30;;;;;;4999741;28;20406;-72
2023/09/27 08:16:07;;;;;;;4.53;3.30;;;21.00;75.30;;;;;;4989187;28;20268;-71
2023/09/27 08:18:34;;;;;;;4.38;3.65;;;21.00;75.40;;;;;;4995971;28;20271;-71
2023/09/27 08:21:01;;;;;;;3.92;3.53;;;21.00;75.30;;;;;;4975510;28;20181;-72
2023/09/27 08:23:27;;;;;;;4.45;3.40;;;21.10;75.60;;;;;;4987137;28;20205;-70
2023/09/27 08:25:53;;;;;;;3.53;3.17;;;21.00;75.40;;;;;;4959156;28;20252;-70
2023/09/27 08:28:21;;;;;;;3.45;2.80;;;21.10;75.50;;;;;;4980721;28;20232;-71
2023/09/27 08:30:48;;;;;;;3.47;3.00;;;21.10;75.60;;;;;;4991216;28;20264;-71
2023/09/27 08:33:14;;;;;;;3.28;2.83;;;21.10;75.60;;;;;;4982421;28;20235;-71
2023/09/27 08:35:42;;;;;;;4.13;3.45;;;21.10;76.40;;;;;;4996914;28;20207;-70
2023/09/27 08:38:08;;;;;;;2.95;2.65;;;21.10;75.60;;;;;;4980513;28;20683;-71
2023/09/27 08:40:35;;;;;;;3.90;3.00;;;21.10;75.70;;;;;;4975183;28;20201;-71
2023/09/27 08:43:00;;;;;;;3.25;2.67;;;21.10;75.70;;;;;;4975844;28;20201;-70
2023/09/27 08:45:27;;;;;;;3.03;2.70;;;21.10;75.80;;;;;;4989015;28;20192;-71
2023/09/27 08:47:54;;;;;;;3.40;2.90;;;21.10;75.80;;;;;;4967738;28;20246;-70
2023/09/27 08:50:20;;;;;;;4.28;3.00;;;21.00;75.70;;;;;;4997858;28;20181;-70
2023/09/27 08:52:49;;;;;;;2.90;2.60;;;21.10;75.90;;;;;;4975147;28;20268;-70
2023/09/27 08:55:17;;;;;;;3.25;2.58;;;21.10;75.90;;;;;;4985764;28;20195;-71
2023/09/27 08:57:49;;;;;;;2.85;2.65;;;21.10;76.00;;;;;;5004588;28;20303;-70
2023/09/27 09:00:20;;;;;;;3.10;2.67;;;21.10;76.00;;;;;;5000890;28;20268;-71
2023/09/27 09:02:56;;;;;;;2.90;2.60;;;21.10;76.00;;;;;;4993646;28;20220;-71
2023/09/27 09:05:26;;;;;;;2.92;2.53;;;21.10;76.00;;;;;;4983362;28;20224;-71
2023/09/27 09:07:52;;;;;;;3.97;2.90;;;21.10;76.00;;;;;;5007810;28;20208;-70
2023/09/27 09:10:18;;;;;;;3.45;2.60;;;21.10;76.10;;;;;;4967691;28;20177;-70
2023/09/27 09:12:47;;;;;;;2.60;2.40;;;21.10;76.10;;;;;;4974563;28;20275;-70
2023/09/27 09:15:29;;;;;;;2.67;2.47;;;21.00;76.00;;;;;;4996339;28;20278;-70
2023/09/27 09:17:57;;;;;;;2.92;2.63;;;21.10;76.90;;;;;;4992036;28;20295;-71
2023/09/27 09:20:32;;;;;;;2.97;2.67;;;21.10;76.20;;;;;;4980289;28;20191;-70
2023/09/27 09:23:03;;;;;;;2.83;2.28;;;21.10;76.30;;;;;;4969915;28;20686;-71
2023/09/27 09:25:29;;;;;;;2.60;2.40;;;21.10;76.30;;;;;;4985289;28;20288;-70
2023/09/27 09:28:03;;;;;;;3.42;2.25;;;21.10;76.40;;;;;;4995094;28;20199;-70
2023/09/27 09:30:40;;;;;;;2.88;2.40;;;21.10;76.50;;;;;;4994586;28;20204;-71
2023/09/27 09:33:15;;;;;;;3.38;2.63;;;21.10;76.50;;;;;;4982702;28;20196;-71
2023/09/27 09:35:41;;;;;;;2.83;2.58;;;21.10;76.50;;;;;;5006933;28;20250;-70
2023/09/27 09:38:07;;;;;;;3.05;2.35;;;21.10;76.50;;;;;;4968449;28;20208;-71
2023/09/27 09:40:34;;;;;;;2.92;2.72;;;21.10;76.60;;;;;;4969682;28;20197;-71
2023/09/27 09:43:00;;;;;;;2.65;2.45;;;21.10;76.50;;;;;;4982950;28;20212;-70
2023/09/27 09:45:28;;;;;;;2.85;2.55;;;21.10;76.50;;;;;;4972298;28;20186;-71
2023/09/27 09:47:56;;;;;;;2.53;2.33;;;21.10;76.50;;;;;;4996078;28;20208;-72
2023/09/27 09:50:22;;;;;;;2.85;2.45;;;21.10;76.50;;;;;;4963332;28;20181;-70
2023/09/27 09:52:50;;;;;;;2.90;2.53;;;21.10;76.60;;;;;;4974385;28;20185;-71
2023/09/27 09:55:21;;;;;;;2.63;2.42;;;21.10;76.50;;;;;;4996039;28;20575;-70
2023/09/27 09:58:11;;;;;;;2.75;2.45;;;21.10;76.50;;;;;;4980969;28;20282;-71
2023/09/27 10:00:42;;;;;;;3.08;2.78;;;21.10;76.50;;;;;;4988922;28;20255;-71
2023/09/27 10:03:15;;;;;;;2.58;2.38;;;21.10;76.60;;;;;;4967179;28;20208;-71
2023/09/27 10:05:42;;;;;;;2.80;2.58;;;21.10;76.70;;;;;;5002170;28;20555;-70
2023/09/27 10:08:08;;;;;;;2.40;2.20;;;21.10;76.70;;;;;;5002302;28;20208;-70
2023/09/27 10:10:36;;;;;;;2.40;2.20;;;21.10;76.70;;;;;;4975040;28;20199;-70
2023/09/27 10:13:06;;;;;;;2.47;2.28;;;21.10;76.50;;;;;;5004282;28;20192;-71
2023/09/27 10:15:33;;;;;;;2.47;2.28;;;21.10;76.60;;;;;;4978546;28;20185;-71
2023/09/27 10:18:21;;;;;;;2.63;2.42;;;21.10;76.60;;;;;;4998550;28;20294;-70
2023/09/27 10:21:03;;;;;;;2.63;2.42;;;21.10;76.50;;;;;;4998431;28;20196;-71
2023/09/27 10:23:57;;;;;;;2.67;2.15;;;21.10;76.50;;;;;;4990983;28;20304;-70
2023/09/27 10:26:28;;;;;;;2.60;2.40;;;21.10;76.70;;;;;;4971728;28;20207;-70
2023/09/27 10:29:15;;;;;;;2.78;2.40;;;21.20;76.60;;;;;;4993909;28;20250;-71
2023/09/27 10:31:56;;;;;;;2.78;2.50;;;21.10;76.50;;;;;;4990775;28;20181;-71
2023/09/27 10:34:27;;;;;;;2.30;2.10;;;21.20;76.60;;;;;;4994526;28;20189;-71
2023/09/27 10:36:55;;;;;;;2.58;2.30;;;21.10;76.50;;;;;;4990934;28;20216;-71
2023/09/27 10:39:21;;;;;;;3.10;2.20;;;21.20;76.60;;;;;;4961280;28;20223;-71
2023/09/27 10:41:49;;;;;;;3.30;1.98;;;21.20;76.60;;;;;;4980623;28;20215;-71
2023/09/27 10:44:33;;;;;;;2.38;2.17;;;21.20;76.60;;;;;;5000675;28;20576;-70
2023/09/27 10:47:03;;;;;;;2.35;2.15;;;21.20;76.70;;;;;;4993300;28;20213;-71
2023/09/27 10:49:38;;;;;;;2.95;2.38;;;21.20;76.60;;;;;;4979056;28;20208;-70
2023/09/27 10:52:14;;;;;;;1.77;1.67;;;21.20;76.70;;;;;;5003087;28;20181;-71
2023/09/27 10:54:40;;;;;;;2.70;2.50;;;21.20;76.70;;;;;;4995001;28;20197;-70
2023/09/27 10:57:06;;;;;;;2.30;2.10;;;21.20;76.70;;;;;;4976996;28;20215;-71
2023/09/27 10:59:32;;;;;;;2.22;2.08;;;21.20;76.70;;;;;;4996381;28;20189;-71
2023/09/27 11:02:04;;;;;;;2.45;2.25;;;21.20;76.60;;;;;;4964547;28;20195;-71
2023/09/27 11:04:32;;;;;;;2.47;2.00;;;21.20;76.60;;;;;;4973796;28;20324;-71
2023/09/27 11:06:58;;;;;;;2.47;1.90;;;21.20;77.00;;;;;;4997548;28;20205;-71
2023/09/27 11:09:24;;;;;;;3.75;2.40;;;21.20;77.00;;;;;;4992886;28;20254;-71
2023/09/27 11:11:55;;;;;;;3.17;2.22;;;21.30;77.00;;;;;;4981476;28;20220;-70
2023/09/27 11:14:32;;;;;;;2.28;2.05;;;21.20;76.90;;;;;;4976996;28;20196;-71
2023/09/27 11:17:16;;;;;;;2.72;2.20;;;21.20;76.90;;;;;;4992964;28;20220;-71
2023/09/27 11:19:42;;;;;;;2.97;2.35;;;21.20;76.90;;;;;;4977343;28;20216;-71
2023/09/27 11:22:08;;;;;;;2.30;2.20;;;21.20;77.00;;;;;;4999228;28;20232;-71
2023/09/27 11:24:40;;;;;;;2.85;2.03;;;21.20;76.70;;;;;;4997063;28;20224;-70
2023/09/27 11:27:07;;;;;;;3.15;2.03;;;21.20;76.90;;;;;;4998408;28;20208;-70
2023/09/27 11:29:34;;;;;;;2.45;2.20;;;21.20;76.90;;;;;;4989678;28;20185;-71
2023/09/27 11:31:59;;;;;;;2.45;2.00;;;21.20;76.80;;;;;;4964286;28;20199;-70
2023/09/27 11:34:25;;;;;;;2.92;2.30;;;21.20;76.80;;;;;;4981141;28;20188;-70
2023/09/27 11:36:54;;;;;;;2.13;1.60;;;21.20;76.80;;;;;;4992246;28;20212;-70
2023/09/27 11:39:50;;;;;;;2.28;2.08;;;21.20;76.70;;;;;;4980586;28;20192;-70
2023/09/27 11:42:26;;;;;;;4.28;2.05;;;21.20;76.70;;;;;;4995901;28;20196;-69
2023/09/27 11:45:09;;;;;;;2.15;1.95;;;21.20;76.80;;;;;;5000492;28;20678;-70
2023/09/27 11:47:51;;;;;;;2.72;2.15;;;21.20;76.90;;;;;;4994500;28;20212;-70
2023/09/27 11:50:19;;;;;;;2.30;2.10;;;21.20;77.00;;;;;;4984389;28;20200;-69
2023/09/27 11:52:46;;;;;;;2.03;1.85;;;21.20;77.20;;;;;;4999105;28;20197;-70
2023/09/27 11:55:14;;;;;;;2.15;1.95;;;21.20;76.90;;;;;;4977925;28;20189;-69
2023/09/27 11:57:40;;;;;;;2.05;1.92;;;21.20;77.00;;;;;;4979845;28;20240;-70
2023/09/27 12:00:08;;;;;;;2.70;1.80;;;21.20;77.00;;;;;;4976054;28;20190;-70
2023/09/27 12:02:37;;;;;;;2.10;1.98;;;21.30;77.00;;;;;;4992097;28;20197;-69
2023/09/27 12:05:04;;;;;;;2.78;1.98;;;21.20;77.00;;;;;;4964296;28;20185;-70
2023/09/27 12:07:32;;;;;;;2.30;2.10;;;21.20;76.90;;;;;;4975778;28;20292;-70
2023/09/27 12:09:58;;;;;;;2.28;1.90;;;21.20;76.80;;;;;;4976010;28;20206;-69
2023/09/27 12:12:23;;;;;;;2.22;2.03;;;21.30;77.00;;;;;;4996120;28;20609;-69
2023/09/27 12:14:49;;;;;;;2.42;2.20;;;21.20;76.90;;;;;;4999050;28;20193;-69
2023/09/27 12:17:16;;;;;;;2.13;1.92;;;21.20;76.80;;;;;;4992801;28;20260;-70
2023/09/27 12:19:43;;;;;;;2.88;2.15;;;21.30;76.90;;;;;;4996156;28;20628;-69
2023/09/27 12:22:13;;;;;;;2.58;1.92;;;21.30;77.00;;;;;;4983725;28;20188;-69
2023/09/27 12:24:39;;;;;;;2.08;1.65;;;21.30;76.90;;;;;;4995572;28;20248;-70
2023/09/27 12:27:06;;;;;;;2.05;1.85;;;21.30;76.90;;;;;;4963126;28;20243;-70
2023/09/27 12:29:33;;;;;;;3.42;2.00;;;21.20;76.80;;;;;;4988665;28;20224;-70
2023/09/27 12:32:00;;;;;;;2.25;1.80;;;21.30;76.80;;;;;;4983133;28;20200;-70
2023/09/27 12:34:26;;;;;;;2.35;1.90;;;21.30;76.90;;;;;;4992487;28;20201;-70
2023/09/27 12:36:52;;;;;;;2.05;1.85;;;21.30;76.80;;;;;;4977540;28;20220;-70
2023/09/27 12:39:17;;;;;;;2.03;1.85;;;21.30;76.90;;;;;;4964370;28;20200;-70
2023/09/27 12:41:43;;;;;;;1.95;1.85;;;21.30;76.70;;;;;;4983110;28;20193;-71
2023/09/27 12:44:09;;;;;;;2.22;1.50;;;21.30;76.70;;;;;;4959151;28;20248;-69
2023/09/27 12:46:34;;;;;;;2.33;1.67;;;21.30;77.00;;;;;;4974803;28;20181;-70
2023/09/27 12:49:00;;;;;;;2.90;1.75;;;21.30;77.40;;;;;;4975204;28;20196;-69
2023/09/27 12:51:26;;;;;;;2.92;1.88;;;21.30;77.10;;;;;;4971366;28;20181;-70